Decoded Metar for KFSM (FORT SMITH in AR, USA) (IATA:FSM) | Meteo·Mobile Aviation Weather
aviador You're here:

KFSM Decoded Metar

FORT SMITH in AR, USA
Report Time2019-02-22 02:53:00
UTC Time2019-02-22 03:51:08
Flight Rules vfr VFR
Wind090° at 10 kt
W.Decomp.*RWY 07: 9.7 kt HW 2.6 kt RCW
RWY 01: 2.6 kt HW 9.7 kt RCW
W.Rank090° ranks 5
Current wind is above 090° avg. (6.0)
Visibility9999 m
Phenomena:N/A
Clouds:Few 021 Hf
Scattered 085 Hf
Expected CloudBase > 1,600 ft AGL from Temp-Dew spread
CeilingNone
Temp06°C (ISA -8)
Dew Point02°C (76% RH)
AAT0.7°C
QNH1019 hPa
Density Alt-620 ft
Elevation459 ft
Report Wrong Elevation
Raw Report
KFSM 220253Z 09010KT 10SM FEW021 SCT085 06/02 A3010 RMK AO2 SLP194
60000 T00610022 51012=

Extra information for KFSM:More info

Metar Taf Metar & Taf Last 4 Metars F.Rules Stats Wind Profile Meteogram Temp Stats Airport Information Weather charts Add Link Nearby VenuesMetar ALERT Operation Metar Decoded Social comments

AIRNAV info for KFSM